createdAt,value
2018-08-31T00:02:06.557Z,97.69
2018-08-31T00:04:46.538Z,98.25
2018-08-31T00:07:32.272Z,97.96
2018-08-31T00:12:46.291Z,97.68
2018-08-31T00:15:15.297Z,97.94
2018-08-31T00:17:44.951Z,97.71
2018-08-31T00:20:15.024Z,98.24
2018-08-31T00:22:44.514Z,98.22
2018-08-31T00:25:24.332Z,98.19
2018-08-31T00:28:04.419Z,98.22
2018-08-31T00:30:44.213Z,98.45
2018-08-31T00:33:24.223Z,98.35
2018-08-31T00:36:04.622Z,98.84
2018-08-31T00:39:45.222Z,98.54
2018-08-31T00:42:25.305Z,98.34
2018-08-31T00:45:05.143Z,98.59
2018-08-31T00:47:33.937Z,98.93
2018-08-31T00:50:02.669Z,99.08
2018-08-31T00:52:31.407Z,99.06
2018-08-31T00:55:00.219Z,99.40
2018-08-31T00:57:28.959Z,99.27
2018-08-31T00:59:57.623Z,99.61
2018-08-31T01:02:26.808Z,99.48
2018-08-31T01:04:55.585Z,99.28
2018-08-31T01:07:24.377Z,99.63
2018-08-31T01:09:53.283Z,99.67
2018-08-31T01:12:22.392Z,99.88
2018-08-31T01:14:51.143Z,99.57
2018-08-31T01:17:20.982Z,99.12
2018-08-31T01:19:50.605Z,99.61
2018-08-31T01:22:19.451Z,99.39
2018-08-31T01:24:48.396Z,99.50
2018-08-31T01:27:17.368Z,99.77
2018-08-31T01:29:45.982Z,99.75
2018-08-31T01:32:15.183Z,100.00
2018-08-31T01:34:44.581Z,99.88
2018-08-31T01:37:13.188Z,100.00
2018-08-31T01:39:41.866Z,100.00
2018-08-31T01:42:10.829Z,100.00
2018-08-31T01:44:39.652Z,100.00
2018-08-31T01:47:08.353Z,100.00
2018-08-31T01:49:37.014Z,100.00
2018-08-31T01:52:05.701Z,100.00
2018-08-31T01:54:34.374Z,100.00
2018-08-31T01:57:03.050Z,100.00
2018-08-31T01:59:31.770Z,100.00
2018-08-31T02:02:00.494Z,100.00
2018-08-31T02:04:29.271Z,100.00
2018-08-31T02:06:58.262Z,100.00
2018-08-31T02:09:26.949Z,100.00
2018-08-31T02:11:56.647Z,100.00
2018-08-31T02:14:25.265Z,100.00
2018-08-31T02:16:53.930Z,100.00
2018-08-31T02:19:22.625Z,100.00
2018-08-31T02:21:51.374Z,100.00
2018-08-31T02:24:20.074Z,100.00
2018-08-31T02:26:48.817Z,100.00
2018-08-31T02:29:17.726Z,100.00
2018-08-31T02:31:46.378Z,100.00
2018-08-31T02:34:15.099Z,100.00
2018-08-31T02:36:44.403Z,100.00
2018-08-31T02:39:13.212Z,100.00
2018-08-31T02:41:41.826Z,100.00
2018-08-31T02:44:10.738Z,100.00
2018-08-31T02:46:40.170Z,100.00
2018-08-31T02:49:08.965Z,100.00
2018-08-31T02:51:37.982Z,100.00
2018-08-31T02:54:06.678Z,100.00
2018-08-31T02:56:36.258Z,100.00
2018-08-31T02:59:05.076Z,100.00
2018-08-31T03:01:33.771Z,100.00
2018-08-31T03:04:02.451Z,100.00
2018-08-31T03:06:31.388Z,100.00
2018-08-31T03:09:01.081Z,100.00
2018-08-31T03:11:30.725Z,100.00
2018-08-31T03:13:59.566Z,100.00
2018-08-31T03:16:29.443Z,100.00
2018-08-31T03:18:59.281Z,100.00
2018-08-31T03:21:28.043Z,100.00
2018-08-31T03:23:56.690Z,100.00
2018-08-31T03:26:26.083Z,100.00
2018-08-31T03:28:54.986Z,100.00
2018-08-31T03:31:24.210Z,100.00
2018-08-31T03:33:52.959Z,100.00
2018-08-31T03:36:22.589Z,100.00
2018-08-31T03:38:51.455Z,100.00
2018-08-31T03:41:20.374Z,100.00
2018-08-31T03:43:50.042Z,100.00
2018-08-31T03:46:18.825Z,100.00
2018-08-31T03:48:47.570Z,100.00
2018-08-31T03:51:16.245Z,100.00
2018-08-31T03:53:45.054Z,100.00
2018-08-31T03:56:13.745Z,100.00
2018-08-31T03:58:42.945Z,100.00
2018-08-31T04:01:11.617Z,100.00
2018-08-31T04:03:40.430Z,100.00
2018-08-31T04:06:09.038Z,100.00
2018-08-31T04:08:37.800Z,100.00
2018-08-31T04:11:06.954Z,100.00
2018-08-31T04:13:35.673Z,100.00
2018-08-31T04:16:04.346Z,100.00
2018-08-31T04:18:33.073Z,100.00
2018-08-31T04:21:01.741Z,100.00
2018-08-31T04:23:30.442Z,100.00
2018-08-31T04:25:59.284Z,100.00
2018-08-31T04:28:28.869Z,100.00
2018-08-31T04:30:57.749Z,100.00
2018-08-31T04:33:26.550Z,100.00
2018-08-31T04:35:59.218Z,100.00
2018-08-31T04:38:27.946Z,100.00
2018-08-31T04:40:57.049Z,100.00
2018-08-31T04:43:25.793Z,100.00
2018-08-31T04:45:54.407Z,100.00
2018-08-31T04:48:23.089Z,100.00
2018-08-31T04:50:51.775Z,100.00
2018-08-31T04:53:20.789Z,100.00
2018-08-31T04:55:49.453Z,100.00
2018-08-31T04:58:18.117Z,100.00
2018-08-31T05:00:46.924Z,100.00
2018-08-31T05:03:15.703Z,100.00
2018-08-31T05:05:44.753Z,100.00
2018-08-31T05:08:13.357Z,100.00
2018-08-31T05:10:42.106Z,100.00
2018-08-31T05:13:10.710Z,100.00
2018-08-31T05:15:39.324Z,99.38
2018-08-31T05:18:08.987Z,99.34
2018-08-31T05:20:37.595Z,99.47
2018-08-31T05:23:06.391Z,99.25
2018-08-31T05:25:35.077Z,99.68
2018-08-31T05:28:03.805Z,99.60
2018-08-31T05:30:32.972Z,99.91
2018-08-31T05:33:01.792Z,100.00
2018-08-31T05:35:30.426Z,99.52
2018-08-31T05:37:59.107Z,99.12
2018-08-31T05:40:27.826Z,99.25
2018-08-31T05:42:56.547Z,98.98
2018-08-31T05:45:26.329Z,98.76
2018-08-31T05:47:55.055Z,98.05
2018-08-31T05:50:23.725Z,98.49
2018-08-31T05:52:52.382Z,97.51
2018-08-31T05:55:21.099Z,97.34
2018-08-31T05:57:49.798Z,96.54
2018-08-31T06:00:18.499Z,96.07
2018-08-31T06:02:47.138Z,94.87
2018-08-31T06:05:15.834Z,94.53
2018-08-31T06:07:45.605Z,93.20
2018-08-31T06:10:14.265Z,92.80
2018-08-31T06:12:42.984Z,92.62
2018-08-31T06:15:11.584Z,92.66
2018-08-31T06:17:40.408Z,91.56
2018-08-31T06:20:09.441Z,91.84
2018-08-31T06:22:38.155Z,91.10
2018-08-31T06:25:07.304Z,91.54
2018-08-31T06:27:35.987Z,91.05
2018-08-31T06:30:05.396Z,90.97
2018-08-31T06:32:34.090Z,90.87
2018-08-31T06:35:02.810Z,89.80
2018-08-31T06:37:31.473Z,88.60
2018-08-31T06:40:00.185Z,88.70
2018-08-31T06:42:28.868Z,88.29
2018-08-31T06:44:57.553Z,88.67
2018-08-31T06:47:26.275Z,89.08
2018-08-31T06:49:55.090Z,86.96
2018-08-31T06:52:23.990Z,87.79
2018-08-31T06:54:52.685Z,86.01
2018-08-31T06:57:21.506Z,86.37
2018-08-31T06:59:51.411Z,84.49
2018-08-31T07:02:20.141Z,84.50
2018-08-31T07:04:49.870Z,85.25
2018-08-31T07:07:19.578Z,84.62
2018-08-31T07:09:49.273Z,84.23
2018-08-31T07:12:18.857Z,84.36
2018-08-31T07:14:47.609Z,82.78
2018-08-31T07:17:16.507Z,82.64
2018-08-31T07:19:45.788Z,82.50
2018-08-31T07:22:14.508Z,82.04
2018-08-31T07:24:43.197Z,82.11
2018-08-31T07:27:12.787Z,81.14
2018-08-31T07:29:41.481Z,80.50
2018-08-31T07:32:10.359Z,79.90
2018-08-31T07:34:39.273Z,80.36
2018-08-31T07:37:08.934Z,79.53
2018-08-31T07:39:37.594Z,79.34
2018-08-31T07:42:06.409Z,79.05
2018-08-31T07:44:35.049Z,78.77
2018-08-31T07:47:04.063Z,77.28
2018-08-31T07:49:32.741Z,78.06
2018-08-31T07:52:01.482Z,79.00
2018-08-31T07:54:30.128Z,77.73
2018-08-31T07:56:58.813Z,77.57
2018-08-31T07:59:27.537Z,76.30
2018-08-31T08:01:57.962Z,76.62
2018-08-31T08:04:26.836Z,74.77
2018-08-31T08:06:55.512Z,73.36
2018-08-31T08:09:24.136Z,74.72
2018-08-31T08:11:53.198Z,74.57
2018-08-31T08:14:22.006Z,73.97
2018-08-31T08:16:51.480Z,74.18
2018-08-31T08:19:20.253Z,73.35
2018-08-31T08:21:49.841Z,73.67
2018-08-31T08:24:18.693Z,71.87
2018-08-31T08:26:47.401Z,72.85
2018-08-31T08:29:16.093Z,72.29
2018-08-31T08:31:45.321Z,71.04
2018-08-31T08:34:14.304Z,72.49
2018-08-31T08:36:44.445Z,70.67
2018-08-31T08:39:14.201Z,69.74
2018-08-31T08:41:43.542Z,70.06
2018-08-31T08:44:12.906Z,69.61
2018-08-31T08:46:41.816Z,69.87
2018-08-31T08:49:10.613Z,69.79
2018-08-31T08:51:39.303Z,69.98
2018-08-31T08:54:07.939Z,70.31
2018-08-31T08:56:37.570Z,69.98
2018-08-31T08:59:06.804Z,68.50
2018-08-31T09:01:35.387Z,68.68
2018-08-31T09:04:04.179Z,68.84
2018-08-31T09:06:32.843Z,68.79
2018-08-31T09:09:01.594Z,67.80
2018-08-31T09:11:30.301Z,67.77
2018-08-31T09:13:59.050Z,67.72
2018-08-31T09:16:27.878Z,68.13
2018-08-31T09:18:58.603Z,66.55
2018-08-31T09:21:28.319Z,65.99
2018-08-31T09:23:57.648Z,66.43
2018-08-31T09:26:27.240Z,65.78
2018-08-31T09:28:56.330Z,63.96
2018-08-31T09:31:25.941Z,65.95
2018-08-31T09:33:55.335Z,63.09
2018-08-31T09:36:24.782Z,63.01
2018-08-31T09:38:53.537Z,62.04
2018-08-31T09:41:22.254Z,61.68
2018-08-31T09:43:51.296Z,60.59
2018-08-31T09:46:20.125Z,61.33
2018-08-31T09:48:48.936Z,60.90
2018-08-31T09:51:17.593Z,61.24
2018-08-31T09:53:46.392Z,60.54
2018-08-31T09:56:15.185Z,61.51
2018-08-31T09:58:43.783Z,60.10
2018-08-31T10:01:17.486Z,60.22
2018-08-31T10:03:46.154Z,59.68
2018-08-31T10:06:15.041Z,60.46
2018-08-31T10:08:43.825Z,59.23
2018-08-31T10:11:12.660Z,59.27
2018-08-31T10:13:41.481Z,59.69
2018-08-31T10:16:10.207Z,59.84
2018-08-31T10:18:39.871Z,59.14
2018-08-31T10:23:42.801Z,56.99
2018-08-31T10:26:11.541Z,56.63
2018-08-31T10:28:40.485Z,57.86
2018-08-31T10:31:10.193Z,56.79
2018-08-31T10:33:38.934Z,55.94
2018-08-31T10:36:07.764Z,55.00
2018-08-31T10:38:36.437Z,55.84
2018-08-31T10:41:06.373Z,54.34
2018-08-31T10:43:35.689Z,54.26
2018-08-31T10:46:04.442Z,54.78
2018-08-31T10:48:33.034Z,53.80
2018-08-31T10:51:01.704Z,53.07
2018-08-31T10:53:31.010Z,51.88
2018-08-31T10:55:59.720Z,51.02
2018-08-31T10:58:28.421Z,51.65
2018-08-31T11:00:57.096Z,51.22
2018-08-31T11:03:25.963Z,50.38
2018-08-31T11:05:54.846Z,50.07
2018-08-31T11:08:24.270Z,49.41
2018-08-31T11:10:52.992Z,48.42
2018-08-31T11:13:23.236Z,47.25
2018-08-31T11:15:52.489Z,48.19
2018-08-31T11:18:21.106Z,47.09
2018-08-31T11:20:49.800Z,45.98
2018-08-31T11:23:18.405Z,45.23
2018-08-31T11:25:47.275Z,45.18
2018-08-31T11:28:15.901Z,42.74
2018-08-31T11:30:44.662Z,40.17
2018-08-31T11:33:13.264Z,39.74
2018-08-31T11:35:41.911Z,41.07
2018-08-31T11:38:10.520Z,41.04
2018-08-31T11:40:39.186Z,41.71
2018-08-31T11:43:07.805Z,41.25
2018-08-31T11:45:37.111Z,42.70
2018-08-31T11:48:06.420Z,41.59
2018-08-31T11:50:35.086Z,40.90
2018-08-31T11:53:03.894Z,41.33
2018-08-31T11:55:32.789Z,40.95
2018-08-31T11:58:01.589Z,40.50
2018-08-31T12:00:31.033Z,40.88
2018-08-31T12:02:59.654Z,38.93
2018-08-31T12:05:28.342Z,36.74
2018-08-31T12:07:57.137Z,36.15
2018-08-31T12:10:25.846Z,37.53
2018-08-31T12:12:54.537Z,37.13
2018-08-31T12:15:23.241Z,37.93
2018-08-31T12:17:51.885Z,37.71
2018-08-31T12:20:20.465Z,39.35
2018-08-31T12:22:49.417Z,40.73
2018-08-31T12:25:18.076Z,40.26
2018-08-31T12:27:46.918Z,38.00
2018-08-31T12:30:16.192Z,37.83
2018-08-31T12:32:45.463Z,36.36
2018-08-31T12:35:14.289Z,35.29
2018-08-31T12:37:42.980Z,36.13
2018-08-31T12:40:11.672Z,36.07
2018-08-31T12:42:40.506Z,35.83
2018-08-31T12:45:09.249Z,34.37
2018-08-31T12:47:38.459Z,35.28
2018-08-31T12:50:07.091Z,36.39
2018-08-31T12:52:36.900Z,35.48
2018-08-31T12:55:05.690Z,33.81
2018-08-31T12:57:34.483Z,31.98
2018-08-31T13:00:04.264Z,31.66
2018-08-31T13:02:33.066Z,30.87
2018-08-31T13:05:02.382Z,32.39
2018-08-31T13:07:30.965Z,33.53
2018-08-31T13:09:59.602Z,32.67
2018-08-31T13:12:28.389Z,34.98
2018-08-31T13:14:57.109Z,30.94
2018-08-31T13:19:59.825Z,30.85
2018-08-31T13:22:28.449Z,29.56
2018-08-31T13:24:57.169Z,30.33
2018-08-31T13:27:25.821Z,32.28
2018-08-31T13:29:54.635Z,32.30
2018-08-31T13:32:23.366Z,30.54
2018-08-31T13:34:52.125Z,32.64
2018-08-31T13:37:20.979Z,32.72
2018-08-31T13:39:49.611Z,32.93
2018-08-31T13:42:18.398Z,34.59
2018-08-31T13:44:47.741Z,35.34
2018-08-31T13:47:16.381Z,35.26
2018-08-31T13:49:45.077Z,34.48
2018-08-31T13:52:14.906Z,35.95
2018-08-31T13:54:45.507Z,35.74
2018-08-31T13:57:14.537Z,34.97
2018-08-31T13:59:43.507Z,35.81
2018-08-31T14:02:13.914Z,36.14
2018-08-31T14:04:43.906Z,36.70
2018-08-31T14:07:13.511Z,36.89
2018-08-31T14:09:44.512Z,36.66
2018-08-31T14:12:13.483Z,35.74
2018-08-31T14:14:43.090Z,35.41
2018-08-31T14:17:11.773Z,34.51
2018-08-31T14:19:40.529Z,33.71
2018-08-31T14:22:09.258Z,31.79
2018-08-31T14:24:37.953Z,31.49
2018-08-31T14:27:06.586Z,30.10
2018-08-31T14:29:35.319Z,29.64
2018-08-31T14:32:03.977Z,29.38
2018-08-31T14:34:32.724Z,28.93
2018-08-31T14:37:01.413Z,28.52
2018-08-31T14:39:30.080Z,28.91
2018-08-31T14:41:58.830Z,27.59
2018-08-31T14:44:27.511Z,28.76
2018-08-31T14:46:56.243Z,29.26
2018-08-31T14:49:25.172Z,29.63
2018-08-31T14:51:54.813Z,28.59
2018-08-31T14:54:23.781Z,29.20
2018-08-31T14:56:52.450Z,27.65
2018-08-31T14:59:21.157Z,28.21
2018-08-31T15:01:50.813Z,28.62
2018-08-31T15:04:19.737Z,28.56
2018-08-31T15:06:49.400Z,28.83
2018-08-31T15:09:18.078Z,29.99
2018-08-31T15:11:46.854Z,30.32
2018-08-31T15:14:16.826Z,30.85
2018-08-31T15:16:45.573Z,30.89
2018-08-31T15:19:14.290Z,32.11
2018-08-31T15:21:43.789Z,32.36
2018-08-31T15:24:12.499Z,32.36
2018-08-31T15:26:41.345Z,32.23
2018-08-31T15:29:10.414Z,32.15
2018-08-31T15:31:39.171Z,31.60
2018-08-31T15:34:07.977Z,32.02
2018-08-31T15:36:36.785Z,32.48
2018-08-31T15:39:07.809Z,31.38
2018-08-31T15:41:36.700Z,31.06
2018-08-31T15:44:05.538Z,32.35
2018-08-31T15:46:34.367Z,32.07
2018-08-31T15:49:03.004Z,32.42
2018-08-31T15:51:32.168Z,32.74
2018-08-31T15:54:00.922Z,31.08
2018-08-31T15:56:29.566Z,31.36
2018-08-31T15:58:58.395Z,31.46
2018-08-31T16:01:27.017Z,31.86
2018-08-31T16:03:55.694Z,31.92
2018-08-31T16:06:24.341Z,32.02
2018-08-31T16:08:53.009Z,33.53
2018-08-31T16:11:21.710Z,32.26
2018-08-31T16:13:50.738Z,33.38
2018-08-31T16:16:19.537Z,34.15
2018-08-31T16:18:48.359Z,35.22
2018-08-31T16:21:16.959Z,35.71
2018-08-31T16:23:45.950Z,37.07
2018-08-31T16:26:14.716Z,38.46
2018-08-31T16:28:44.243Z,38.37
2018-08-31T16:31:13.011Z,38.44
2018-08-31T16:33:42.175Z,39.74
2018-08-31T16:36:10.954Z,39.57
2018-08-31T16:38:40.065Z,41.23
2018-08-31T16:41:09.025Z,42.82
2018-08-31T16:43:37.617Z,43.43
2018-08-31T16:46:07.007Z,44.45
2018-08-31T16:48:35.670Z,44.99
2018-08-31T16:51:04.410Z,46.28
2018-08-31T16:53:33.042Z,46.23
2018-08-31T16:56:01.821Z,46.33
2018-08-31T16:58:30.490Z,47.59
2018-08-31T17:00:59.169Z,47.41
2018-08-31T17:03:27.962Z,48.60
2018-08-31T17:05:56.612Z,49.27
2018-08-31T17:08:25.379Z,49.80
2018-08-31T17:10:54.352Z,50.09
2018-08-31T17:13:24.044Z,50.79
2018-08-31T17:15:59.332Z,51.28
2018-08-31T17:18:28.189Z,51.99
2018-08-31T17:20:56.866Z,52.27
2018-08-31T17:23:25.565Z,53.02
2018-08-31T17:25:54.366Z,53.45
2018-08-31T17:28:28.315Z,54.25
2018-08-31T17:31:02.378Z,54.23
2018-08-31T17:33:37.590Z,54.33
2018-08-31T17:36:11.962Z,55.40
2018-08-31T17:38:40.857Z,55.79
2018-08-31T17:41:09.518Z,55.75
2018-08-31T17:43:38.187Z,56.29
2018-08-31T17:46:06.848Z,56.37
2018-08-31T17:48:35.568Z,56.59
2018-08-31T17:51:04.423Z,56.73
2018-08-31T17:53:33.150Z,56.98
2018-08-31T17:56:01.832Z,57.27
2018-08-31T17:58:30.638Z,57.48
2018-08-31T18:00:59.302Z,57.02
2018-08-31T18:03:28.187Z,57.39
2018-08-31T18:05:56.940Z,58.11
2018-08-31T18:08:25.929Z,58.21
2018-08-31T18:10:54.618Z,58.26
2018-08-31T18:13:23.373Z,57.79
2018-08-31T18:15:55.215Z,57.98
2018-08-31T18:18:24.030Z,58.47
2018-08-31T18:20:52.923Z,58.46
2018-08-31T18:23:21.673Z,58.75
2018-08-31T18:25:50.699Z,59.00
2018-08-31T18:28:20.353Z,59.19
2018-08-31T18:30:49.403Z,58.75
2018-08-31T18:33:19.625Z,58.91
2018-08-31T18:35:48.870Z,59.97
2018-08-31T18:38:18.122Z,60.21
2018-08-31T18:40:47.903Z,60.26
2018-08-31T18:43:16.893Z,60.91
2018-08-31T18:45:45.707Z,61.45
2018-08-31T18:48:14.725Z,61.86
2018-08-31T18:50:43.681Z,61.73
2018-08-31T18:53:12.345Z,61.58
2018-08-31T18:55:41.834Z,61.54
2018-08-31T18:58:10.512Z,62.64
2018-08-31T19:00:39.253Z,62.49
2018-08-31T19:03:08.149Z,63.28
2018-08-31T19:05:36.963Z,62.91
2018-08-31T19:08:05.682Z,62.22
2018-08-31T19:10:34.329Z,62.76
2018-08-31T19:13:03.143Z,61.96
2018-08-31T19:15:32.066Z,62.08
2018-08-31T19:18:02.138Z,62.60
2018-08-31T19:20:31.084Z,62.30
2018-08-31T19:23:00.053Z,62.32
2018-08-31T19:25:29.254Z,62.90
2018-08-31T19:27:57.969Z,63.59
2018-08-31T19:30:26.845Z,63.02
2018-08-31T19:32:56.168Z,63.50
2018-08-31T19:35:24.948Z,63.35
2018-08-31T19:37:53.609Z,63.75
2018-08-31T19:40:22.466Z,63.11
2018-08-31T19:42:52.158Z,62.79
2018-08-31T19:45:20.869Z,62.94
2018-08-31T19:47:50.526Z,62.81
2018-08-31T19:50:19.207Z,63.03
2018-08-31T19:52:47.988Z,63.26
2018-08-31T19:55:16.940Z,63.17
2018-08-31T19:57:45.640Z,63.75
2018-08-31T20:00:14.494Z,63.82
2018-08-31T20:02:43.270Z,63.81
2018-08-31T20:05:13.034Z,63.32
2018-08-31T20:07:41.733Z,63.55
2018-08-31T20:10:11.899Z,63.93
2018-08-31T20:12:41.190Z,64.09
2018-08-31T20:15:10.131Z,65.47
2018-08-31T20:17:38.902Z,65.86
2018-08-31T20:20:07.591Z,65.71
2018-08-31T20:22:36.814Z,65.64
2018-08-31T20:25:05.633Z,65.79
2018-08-31T20:27:34.426Z,65.74
2018-08-31T20:30:04.421Z,65.93
2018-08-31T20:32:33.141Z,66.29
2018-08-31T20:35:01.914Z,66.30
2018-08-31T20:37:32.273Z,65.86
2018-08-31T20:40:01.151Z,65.30
2018-08-31T20:42:29.862Z,66.07
2018-08-31T20:44:58.707Z,65.97
2018-08-31T20:47:27.417Z,66.47
2018-08-31T20:49:56.232Z,66.35
2018-08-31T20:52:25.029Z,66.96
2018-08-31T20:54:53.792Z,66.83
2018-08-31T20:57:22.905Z,66.54
2018-08-31T20:59:51.762Z,66.66
2018-08-31T21:02:20.729Z,66.66
2018-08-31T21:04:49.673Z,66.70
2018-08-31T21:07:18.389Z,66.97
2018-08-31T21:09:48.217Z,67.04
2018-08-31T21:12:17.486Z,67.89
2018-08-31T21:14:46.151Z,67.19
2018-08-31T21:17:14.966Z,67.39
2018-08-31T21:19:44.149Z,68.66
2018-08-31T21:22:13.381Z,68.97
2018-08-31T21:24:42.165Z,68.73
2018-08-31T21:27:10.753Z,68.47
2018-08-31T21:29:39.556Z,69.39
2018-08-31T21:32:08.264Z,69.63
2018-08-31T21:34:37.133Z,70.34
2018-08-31T21:37:06.746Z,70.22
2018-08-31T21:39:35.369Z,71.07
2018-08-31T21:42:04.354Z,70.93
2018-08-31T21:44:33.137Z,71.25
2018-08-31T21:47:01.825Z,71.63
2018-08-31T21:49:43.908Z,72.40
2018-08-31T21:52:12.813Z,72.70
2018-08-31T21:57:15.726Z,73.63
2018-08-31T21:59:44.625Z,74.01
2018-08-31T22:02:13.473Z,73.81
2018-08-31T22:04:42.294Z,74.39
2018-08-31T22:07:11.105Z,74.35
2018-08-31T22:09:39.997Z,74.22
2018-08-31T22:12:08.901Z,74.53
2018-08-31T22:14:37.557Z,74.93
2018-08-31T22:17:06.457Z,74.32
2018-08-31T22:19:35.363Z,74.23
2018-08-31T22:22:04.166Z,74.44
2018-08-31T22:24:33.051Z,74.63
2018-08-31T22:27:01.679Z,74.86
2018-08-31T22:29:30.723Z,74.53
2018-08-31T22:32:00.551Z,74.36
2018-08-31T22:34:29.508Z,74.25
2018-08-31T22:36:59.986Z,74.37
2018-08-31T22:39:28.887Z,74.51
2018-08-31T22:41:58.166Z,74.82
2018-08-31T22:44:26.952Z,75.49
2018-08-31T22:46:55.874Z,75.67
2018-08-31T22:49:24.777Z,75.67
2018-08-31T22:51:53.647Z,76.12
2018-08-31T22:54:23.141Z,75.95
2018-08-31T22:56:51.767Z,76.14
2018-08-31T22:59:21.057Z,76.34
2018-08-31T23:01:49.708Z,76.09
2018-08-31T23:04:20.219Z,76.25
2018-08-31T23:06:49.900Z,75.95
2018-08-31T23:09:18.672Z,76.16
2018-08-31T23:11:48.362Z,76.24
2018-08-31T23:14:17.393Z,76.55
2018-08-31T23:16:45.991Z,75.97
2018-08-31T23:19:14.787Z,75.76
2018-08-31T23:21:43.445Z,76.05
2018-08-31T23:24:12.443Z,76.09
2018-08-31T23:26:42.527Z,76.06
2018-08-31T23:29:11.253Z,76.21
2018-08-31T23:31:40.133Z,75.81
2018-08-31T23:34:08.756Z,76.26
2018-08-31T23:36:37.613Z,76.10
2018-08-31T23:39:08.519Z,76.16
2018-08-31T23:41:37.982Z,76.42
2018-08-31T23:44:06.871Z,76.52
2018-08-31T23:46:36.016Z,76.51
2018-08-31T23:49:04.973Z,76.47
2018-08-31T23:51:34.598Z,75.97
2018-08-31T23:54:04.371Z,76.44
2018-08-31T23:56:34.407Z,76.62
2018-08-31T23:59:03.865Z,77.17
